PN64 weather

Hilling International Airport
Huntingdon, Pennsylvania, United States

Public forecast

Using degrees Fahrenheit for public forecast. Weather courtesy of forecast.io.

Closest aviation weather report (METAR) to Hilling International Airport

Closest report is University Park Airport, 21.2 nm (39.3 km) N. Retrieved 2020/06/01 20:53 UTC (43 minutes ago):

KUNV 012053Z 29011G14KT 10SM SCT080 21/02 A3016

Closest aviation forecast (TAF) to Hilling International Airport

Closest forecast is University Park Airport, 21.2 nm (39.3 km) N. Retrieved 2020/06/01 18:22 UTC (3 hours ago):

TAF KUNV 011720Z 0118/0218 32012G19KT P6SM SCT070 FM020000 27004KT P6SM BKN250 FM021000 24005KT P6SM VCSH OVC050